M Y Odessa — ZCYV3 — position and weather

sailwx.info

Track history (hours):
 
Tides and Currents Weather Stations Pressure Air Temp Water Temp Dewpoint Dewpoint Depression Visibility Wind Speed Wind Dir Waves Ship Positions

M Y Odessa

Last reported at 2015-Aug-26 20:34 UTC. Time now 2015-Aug-30 01:37 UTC.
Position N 41°18' W 070°06'.

Length 48 m; draft 2.4 m.

Type: Pleasure craft. MMSI: 319010700.

Date/timePositionNaut miles runAvg speedWind from/ knotsBaromVisibWave heightAir tempDewpointWater temp
2015-Aug-26 20:34N 41°18' W 070°06'3 2.6
2015-Aug-26 19:34N 41°20' W 070°06'7 7.2
2015-Aug-26 18:34N 41°28' W 070°05'8 8.4
2015-Aug-26 17:33N 41°33' W 069°56'10 9.8
2015-Aug-26 16:32N 41°43' W 069°52'  
2015-Aug-20 13:28N 41°33' W 070°48'24 7.7
2015-Aug-20 10:18N 41°29' W 071°20'1 0.0
2015-Aug-19 05:27N 41°29' W 071°19'0 0.0
2015-Aug-19 04:30N 41°29' W 071°19'0 0.0
2015-Aug-19 03:18N 41°29' W 071°19'0 0.0
2015-Aug-19 02:30N 41°29' W 071°19'0 0.0
2015-Aug-19 01:28N 41°29' W 071°19'0 0.0
2015-Aug-19 00:24N 41°29' W 071°19'0 0.0
2015-Aug-18 23:33N 41°29' W 071°19'0 0.0
2015-Aug-18 22:33N 41°29' W 071°19'0 0.0
2015-Aug-18 21:29N 41°29' W 071°19'0 0.0
2015-Aug-18 20:33N 41°29' W 071°19'0 0.0
2015-Aug-18 19:30N 41°29' W 071°19'0 0.0
2015-Aug-18 18:21N 41°29' W 071°19'0 0.0
2015-Aug-18 17:33N 41°29' W 071°19'0 0.0
2015-Aug-18 16:33N 41°29' W 071°19'0 0.0
2015-Aug-18 12:30N 41°29' W 071°19'0 0.0
2015-Aug-17 23:03N 41°29' W 071°19'0 0.0
2015-Aug-17 22:33N 41°29' W 071°19'0 0.0
2015-Aug-17 21:33N 41°29' W 071°19'0 0.0
2015-Aug-17 20:30N 41°29' W 071°19'0 0.0
2015-Aug-17 19:09N 41°29' W 071°19'0 0.0
2015-Aug-17 18:24N 41°29' W 071°19'0 0.0
2015-Aug-17 17:33N 41°29' W 071°19'0 0.0
2015-Aug-17 16:33N 41°29' W 071°19'0 0.0
2015-Aug-17 15:30N 41°29' W 071°19'0 0.0
2015-Aug-17 14:33N 41°29' W 071°19'0 0.0
2015-Aug-17 13:30N 41°29' W 071°19'0 0.0
2015-Aug-17 12:33N 41°29' W 071°19'0 0.0
2015-Aug-17 11:30N 41°29' W 071°19'0 0.0
2015-Aug-17 10:33N 41°29' W 071°19'0 0.0
2015-Aug-17 09:33N 41°29' W 071°19'0 0.0
2015-Aug-17 08:33N 41°29' W 071°19'0 0.0
2015-Aug-17 07:33N 41°29' W 071°19'0 0.0
2015-Aug-17 06:33N 41°29' W 071°19'0 0.0
2015-Aug-17 05:33N 41°29' W 071°19'0 0.0
2015-Aug-17 04:33N 41°29' W 071°19'0 0.0
2015-Aug-17 03:33N 41°29' W 071°19'0 0.0
2015-Aug-17 02:21N 41°29' W 071°19'0 0.0
2015-Aug-17 01:33N 41°29' W 071°19'0 0.0
2015-Aug-17 00:30N 41°29' W 071°19'0 0.0
2015-Aug-16 23:33N 41°29' W 071°19'0 0.0
2015-Aug-16 22:34N 41°29' W 071°19'3 3.2
2015-Aug-16 21:28N 41°26' W 071°22'1011.2
2015-Aug-16 20:34N 41°24' W 071°09'  
Track history (hours):
 
Tides and Currents Weather Stations Pressure Air Temp Water Temp Dewpoint Dewpoint Depression Visibility Wind Speed Wind Dir Waves Ship Positions

M Y Odessa

Last reported at 2015-Aug-26 20:34 UTC. Time now 2015-Aug-30 01:37 UTC.
Position N 41°18' W 070°06'.

Length 48 m; draft 2.4 m.

Type: Pleasure craft. MMSI: 319010700.

Date/timePositionNaut miles runAvg speedWind from/ knotsBaromVisibWave heightAir tempDewpointWater temp
2015-Aug-26 20:34N 41°18' W 070°06'3 2.6
2015-Aug-26 19:34N 41°20' W 070°06'7 7.2
2015-Aug-26 18:34N 41°28' W 070°05'8 8.4
2015-Aug-26 17:33N 41°33' W 069°56'10 9.8
2015-Aug-26 16:32N 41°43' W 069°52'  
2015-Aug-20 13:28N 41°33' W 070°48'24 7.7
2015-Aug-20 10:18N 41°29' W 071°20'1 0.0
2015-Aug-19 05:27N 41°29' W 071°19'0 0.0
2015-Aug-19 04:30N 41°29' W 071°19'0 0.0
2015-Aug-19 03:18N 41°29' W 071°19'0 0.0
2015-Aug-19 02:30N 41°29' W 071°19'0 0.0
2015-Aug-19 01:28N 41°29' W 071°19'0 0.0
2015-Aug-19 00:24N 41°29' W 071°19'0 0.0
2015-Aug-18 23:33N 41°29' W 071°19'0 0.0
2015-Aug-18 22:33N 41°29' W 071°19'0 0.0
2015-Aug-18 21:29N 41°29' W 071°19'0 0.0
2015-Aug-18 20:33N 41°29' W 071°19'0 0.0
2015-Aug-18 19:30N 41°29' W 071°19'0 0.0
2015-Aug-18 18:21N 41°29' W 071°19'0 0.0
2015-Aug-18 17:33N 41°29' W 071°19'0 0.0
2015-Aug-18 16:33N 41°29' W 071°19'0 0.0
2015-Aug-18 12:30N 41°29' W 071°19'0 0.0
2015-Aug-17 23:03N 41°29' W 071°19'0 0.0
2015-Aug-17 22:33N 41°29' W 071°19'0 0.0
2015-Aug-17 21:33N 41°29' W 071°19'0 0.0
2015-Aug-17 20:30N 41°29' W 071°19'0 0.0
2015-Aug-17 19:09N 41°29' W 071°19'0 0.0
2015-Aug-17 18:24N 41°29' W 071°19'0 0.0
2015-Aug-17 17:33N 41°29' W 071°19'0 0.0
2015-Aug-17 16:33N 41°29' W 071°19'0 0.0
2015-Aug-17 15:30N 41°29' W 071°19'0 0.0
2015-Aug-17 14:33N 41°29' W 071°19'0 0.0
2015-Aug-17 13:30N 41°29' W 071°19'0 0.0
2015-Aug-17 12:33N 41°29' W 071°19'0 0.0
2015-Aug-17 11:30N 41°29' W 071°19'0 0.0
2015-Aug-17 10:33N 41°29' W 071°19'0 0.0
2015-Aug-17 09:33N 41°29' W 071°19'0 0.0
2015-Aug-17 08:33N 41°29' W 071°19'0 0.0
2015-Aug-17 07:33N 41°29' W 071°19'0 0.0
2015-Aug-17 06:33N 41°29' W 071°19'0 0.0
2015-Aug-17 05:33N 41°29' W 071°19'0 0.0
2015-Aug-17 04:33N 41°29' W 071°19'0 0.0
2015-Aug-17 03:33N 41°29' W 071°19'0 0.0
2015-Aug-17 02:21N 41°29' W 071°19'0 0.0
2015-Aug-17 01:33N 41°29' W 071°19'0 0.0
2015-Aug-17 00:30N 41°29' W 071°19'0 0.0
2015-Aug-16 23:33N 41°29' W 071°19'0 0.0
2015-Aug-16 22:34N 41°29' W 071°19'3 3.2
2015-Aug-16 21:28N 41°26' W 071°22'1011.2
2015-Aug-16 20:34N 41°24' W 071°09'  

Dump ship's entire track history